Time;durP1;ratioP1;P1;durP2;ratioP2;P2;SDS_P1;SDS_P2;PMS_P1;PMS_P2;Temp;Humidity;BMP_temperature;BMP_pressure;BME280_temperature;BME280_humidity;BME280_pressure;Samples;Min_cycle;Max_cycle;Signal;HPM_P1;HPM_P2
2023/03/15 00:01:08;;;;;;;1.67;1.57;;;3.90;99.90;;;;;;5070658;28;20451;-72
2023/03/15 00:03:36;;;;;;;1.43;1.30;;;3.70;99.90;;;;;;5078130;28;20466;-72
2023/03/15 00:06:04;;;;;;;2.50;1.10;;;3.70;99.90;;;;;;5066761;28;20440;-72
2023/03/15 00:08:32;;;;;;;0.90;0.73;;;3.50;99.90;;;;;;5068040;28;20490;-72
2023/03/15 00:11:02;;;;;;;4.43;1.37;;;3.30;99.90;;;;;;5067003;28;20444;-72
2023/03/15 00:13:30;;;;;;;1.40;0.93;;;3.30;99.90;;;;;;5073880;28;20512;-72
2023/03/15 00:15:58;;;;;;;1.50;1.20;;;3.40;99.90;;;;;;5070539;28;20472;-73
2023/03/15 00:18:26;;;;;;;2.50;1.43;;;3.30;99.90;;;;;;5064646;28;20449;-72
2023/03/15 00:20:53;;;;;;;4.10;1.30;;;3.40;99.90;;;;;;5066003;28;20534;-73
2023/03/15 00:23:20;;;;;;;4.00;1.67;;;3.50;99.90;;;;;;5066087;28;20468;-73
2023/03/15 00:25:50;;;;;;;2.17;1.00;;;3.60;99.90;;;;;;5072219;28;20459;-73
2023/03/15 00:28:18;;;;;;;1.50;1.20;;;3.70;99.90;;;;;;5070753;28;20692;-72
2023/03/15 00:30:46;;;;;;;2.30;2.10;;;3.70;99.90;;;;;;5082912;28;20923;-72
2023/03/15 00:33:13;;;;;;;2.73;1.80;;;3.70;99.90;;;;;;5074106;28;20903;-74
2023/03/15 00:35:42;;;;;;;3.73;1.90;;;3.90;99.90;;;;;;5072576;28;20448;-72
2023/03/15 00:38:09;;;;;;;3.83;1.67;;;3.80;99.90;;;;;;5073259;28;20537;-72
2023/03/15 00:40:37;;;;;;;1.83;1.60;;;3.80;99.90;;;;;;5057723;28;21018;-72
2023/03/15 00:43:04;;;;;;;5.30;1.93;;;3.90;99.90;;;;;;5067062;28;20474;-72
2023/03/15 00:45:33;;;;;;;12.57;2.70;;;3.90;99.90;;;;;;5070682;28;20459;-72
2023/03/15 00:48:00;;;;;;;4.80;2.40;;;4.00;99.90;;;;;;5067530;28;21065;-73
2023/03/15 00:50:27;;;;;;;5.00;2.20;;;4.10;99.90;;;;;;5058717;28;20636;-72
2023/03/15 00:52:54;;;;;;;2.90;2.60;;;4.20;99.90;;;;;;5070800;28;20475;-72
2023/03/15 00:55:21;;;;;;;3.63;1.63;;;4.20;99.90;;;;;;5072118;28;20812;-72
2023/03/15 00:57:49;;;;;;;9.90;2.37;;;4.20;99.90;;;;;;5061587;28;20552;-72
2023/03/15 01:00:22;;;;;;;3.00;2.40;;;4.30;99.90;;;;;;5072528;28;20425;-73
2023/03/15 01:02:50;;;;;;;2.70;2.30;;;4.10;99.90;;;;;;5067904;28;20439;-72
2023/03/15 01:05:17;;;;;;;3.50;2.30;;;4.30;99.90;;;;;;5073350;28;20458;-72
2023/03/15 01:07:45;;;;;;;10.87;3.53;;;4.40;99.90;;;;;;5072233;28;20561;-72
2023/03/15 01:10:13;;;;;;;6.67;2.17;;;4.30;99.90;;;;;;5068080;28;20803;-72
2023/03/15 01:12:41;;;;;;;3.07;2.83;;;4.40;99.90;;;;;;5065212;28;20516;-72
2023/03/15 01:15:10;;;;;;;6.60;2.73;;;4.40;99.90;;;;;;5075030;28;20485;-72
2023/03/15 01:17:37;;;;;;;4.70;3.30;;;4.30;99.90;;;;;;5080842;28;20516;-73
2023/03/15 01:20:08;;;;;;;2.17;1.63;;;4.30;99.90;;;;;;5082906;28;20425;-73
2023/03/15 01:22:35;;;;;;;3.43;2.47;;;4.20;99.90;;;;;;5079954;28;20831;-72
2023/03/15 01:25:02;;;;;;;2.60;1.73;;;4.10;99.90;;;;;;5066600;28;20544;-72
2023/03/15 01:27:29;;;;;;;4.67;2.33;;;4.10;99.90;;;;;;5063443;28;20509;-72
2023/03/15 01:29:56;;;;;;;4.30;2.47;;;4.00;99.90;;;;;;5067180;28;20855;-72
2023/03/15 01:32:23;;;;;;;7.23;3.73;;;4.10;99.90;;;;;;5071770;28;20424;-72
2023/03/15 01:34:50;;;;;;;5.83;2.80;;;4.00;99.90;;;;;;5079796;28;20907;-72
2023/03/15 01:37:18;;;;;;;5.27;3.00;;;4.00;99.90;;;;;;5069435;28;20548;-72
2023/03/15 01:39:48;;;;;;;6.17;3.23;;;4.10;99.90;;;;;;5071695;28;20514;-72
2023/03/15 01:42:17;;;;;;;15.43;4.37;;;4.10;99.90;;;;;;5071959;28;20501;-72
2023/03/15 01:44:55;;;;;;;4.03;3.13;;;4.20;99.90;;;;;;5069749;28;20462;-72
2023/03/15 01:47:25;;;;;;;7.63;2.83;;;4.20;99.90;;;;;;5066835;28;20493;-72
2023/03/15 01:49:59;;;;;;;2.53;2.20;;;4.20;99.90;;;;;;5070894;28;20437;-72
2023/03/15 01:52:32;;;;;;;4.40;2.00;;;4.20;99.90;;;;;;5066041;28;20838;-72
2023/03/15 01:55:04;;;;;;;4.30;3.53;;;4.20;99.90;;;;;;5072636;28;20827;-72
2023/03/15 01:57:35;;;;;;;6.67;3.63;;;4.20;99.90;;;;;;5068529;28;20547;-72
2023/03/15 02:00:09;;;;;;;5.17;3.03;;;4.20;99.90;;;;;;5063376;28;20949;-72
2023/03/15 02:02:38;;;;;;;4.43;4.03;;;4.10;99.90;;;;;;5063408;28;20467;-72
2023/03/15 02:05:10;;;;;;;5.67;4.60;;;4.20;99.90;;;;;;5066610;28;20855;-72
2023/03/15 02:07:48;;;;;;;3.07;2.77;;;4.20;99.90;;;;;;5069913;28;20992;-72
2023/03/15 02:10:20;;;;;;;6.93;4.10;;;4.20;99.90;;;;;;5067887;28;20444;-72
2023/03/15 02:12:51;;;;;;;9.27;4.03;;;4.20;99.90;;;;;;5059898;28;20475;-72
2023/03/15 02:15:18;;;;;;;5.70;3.60;;;4.30;99.90;;;;;;5068024;28;20486;-72
2023/03/15 02:17:47;;;;;;;3.60;3.27;;;4.30;99.90;;;;;;5065566;28;20521;-72
2023/03/15 02:20:29;;;;;;;2.57;2.40;;;4.40;99.90;;;;;;5067792;28;20468;-72
2023/03/15 02:23:00;;;;;;;10.50;5.47;;;4.40;99.90;;;;;;5065647;28;20446;-72
2023/03/15 02:25:39;;;;;;;11.77;4.63;;;4.40;99.90;;;;;;5064528;28;20517;-72
2023/03/15 02:28:10;;;;;;;8.87;4.10;;;4.40;99.90;;;;;;5069270;28;20537;-72
2023/03/15 02:30:37;;;;;;;6.37;3.97;;;4.30;99.90;;;;;;5060757;28;20504;-72
2023/03/15 02:33:08;;;;;;;5.87;4.70;;;4.30;99.90;;;;;;5061925;28;20464;-72
2023/03/15 02:35:35;;;;;;;6.23;3.70;;;4.10;99.90;;;;;;5062083;28;20474;-71
2023/03/15 02:38:02;;;;;;;4.40;2.90;;;4.00;99.90;;;;;;5065949;28;21085;-72
2023/03/15 02:40:30;;;;;;;3.30;3.00;;;3.90;99.90;;;;;;5067067;28;20437;-72
2023/03/15 02:43:00;;;;;;;8.00;3.33;;;3.90;99.90;;;;;;5069312;28;20848;-72
2023/03/15 02:45:32;;;;;;;6.87;3.73;;;4.00;99.90;;;;;;5070384;28;20613;-72
2023/03/15 02:48:00;;;;;;;4.07;3.17;;;4.00;99.90;;;;;;5079951;28;20463;-72
2023/03/15 02:50:27;;;;;;;3.87;2.27;;;4.00;99.90;;;;;;5065197;28;20964;-72
2023/03/15 02:52:54;;;;;;;3.10;2.70;;;4.00;99.90;;;;;;5067426;28;20462;-72
2023/03/15 02:55:21;;;;;;;2.90;2.20;;;4.00;99.90;;;;;;5067276;28;20485;-73
2023/03/15 02:57:49;;;;;;;3.70;3.40;;;3.90;99.90;;;;;;5073884;28;20836;-73
2023/03/15 03:00:16;;;;;;;5.00;3.50;;;3.90;99.90;;;;;;5072106;28;20426;-72
2023/03/15 03:02:47;;;;;;;10.90;3.07;;;4.00;99.90;;;;;;5066587;28;20486;-72
2023/03/15 03:05:16;;;;;;;6.00;3.10;;;4.00;99.90;;;;;;5087125;28;20481;-73
2023/03/15 03:07:43;;;;;;;5.43;2.90;;;4.00;99.90;;;;;;5075479;28;20491;-72
2023/03/15 03:10:13;;;;;;;3.93;3.53;;;4.00;99.90;;;;;;5070603;28;20426;-73
2023/03/15 03:12:40;;;;;;;2.60;1.53;;;4.00;99.90;;;;;;5085655;28;20505;-73
2023/03/15 03:15:08;;;;;;;3.17;2.30;;;4.00;99.90;;;;;;5084131;28;20471;-72
2023/03/15 03:17:36;;;;;;;2.70;2.17;;;4.00;99.90;;;;;;5075324;28;20513;-72
2023/03/15 03:20:06;;;;;;;4.50;3.70;;;3.90;99.90;;;;;;5074963;28;21012;-72
2023/03/15 03:22:34;;;;;;;3.57;2.80;;;4.00;99.90;;;;;;5074285;28;20413;-72
2023/03/15 03:25:01;;;;;;;5.73;3.87;;;4.00;99.90;;;;;;5068720;28;20961;-72
2023/03/15 03:27:29;;;;;;;4.10;3.10;;;4.00;99.90;;;;;;5067887;28;20468;-72
2023/03/15 03:29:56;;;;;;;8.30;4.30;;;4.10;99.90;;;;;;5057882;28;20426;-72
2023/03/15 03:32:23;;;;;;;4.20;3.20;;;4.00;99.90;;;;;;5075375;28;20424;-72
2023/03/15 03:34:49;;;;;;;2.27;2.07;;;4.10;99.90;;;;;;5072588;28;20596;-72
2023/03/15 03:37:18;;;;;;;4.40;3.73;;;4.20;99.90;;;;;;5074433;28;20540;-72
2023/03/15 03:39:46;;;;;;;6.57;3.20;;;4.10;99.90;;;;;;5074921;28;20552;-72
2023/03/15 03:42:14;;;;;;;3.73;3.43;;;4.10;99.90;;;;;;5071146;28;20510;-73
2023/03/15 03:44:44;;;;;;;4.33;3.83;;;4.20;99.90;;;;;;5073037;28;20831;-72
2023/03/15 03:47:11;;;;;;;4.30;2.53;;;4.20;99.90;;;;;;5066613;28;20471;-72
2023/03/15 03:49:38;;;;;;;4.07;3.03;;;4.20;99.90;;;;;;5099694;28;20424;-72
2023/03/15 03:52:05;;;;;;;4.90;2.60;;;4.30;99.90;;;;;;5075103;28;20533;-73
2023/03/15 03:54:34;;;;;;;5.93;3.53;;;4.10;99.90;;;;;;5071880;28;20513;-74
2023/03/15 03:57:01;;;;;;;4.80;3.30;;;4.10;99.90;;;;;;5076513;28;20525;-74
2023/03/15 03:59:28;;;;;;;5.37;4.30;;;4.00;99.90;;;;;;5064497;28;20447;-73
2023/03/15 04:01:55;;;;;;;5.97;3.57;;;3.90;99.90;;;;;;5068959;28;20520;-73
2023/03/15 04:04:22;;;;;;;7.17;5.20;;;3.90;99.90;;;;;;5064146;28;20465;-73
2023/03/15 04:06:49;;;;;;;4.97;3.40;;;3.90;99.90;;;;;;5062646;28;21022;-73
2023/03/15 04:09:17;;;;;;;2.80;2.33;;;3.90;99.90;;;;;;5074428;28;20478;-73
2023/03/15 04:11:45;;;;;;;5.63;4.67;;;4.00;99.90;;;;;;5073889;28;20532;-72
2023/03/15 04:14:14;;;;;;;3.43;2.63;;;3.90;99.90;;;;;;5072065;28;20477;-72
2023/03/15 04:16:41;;;;;;;9.17;4.63;;;4.00;99.90;;;;;;5073137;28;20437;-72
2023/03/15 04:19:09;;;;;;;7.90;6.10;;;4.10;99.90;;;;;;5064239;28;20479;-72
2023/03/15 04:21:36;;;;;;;3.30;2.70;;;4.20;99.90;;;;;;5080249;28;20469;-72
2023/03/15 04:24:04;;;;;;;8.13;4.50;;;4.20;99.90;;;;;;5079062;28;20555;-72
2023/03/15 04:26:31;;;;;;;4.93;3.03;;;4.20;99.90;;;;;;5065331;28;20511;-72
2023/03/15 04:28:59;;;;;;;6.20;4.10;;;4.10;99.90;;;;;;5063743;28;20540;-72
2023/03/15 04:31:27;;;;;;;3.33;2.90;;;4.10;99.90;;;;;;5070173;28;20454;-72
2023/03/15 04:33:55;;;;;;;8.07;3.47;;;4.20;99.90;;;;;;5071164;28;20463;-72
2023/03/15 04:36:22;;;;;;;2.93;2.63;;;4.20;99.90;;;;;;5077861;28;20544;-72
2023/03/15 04:38:50;;;;;;;7.40;4.40;;;4.20;99.90;;;;;;5066243;28;20892;-72
2023/03/15 04:41:18;;;;;;;2.67;2.37;;;4.20;99.90;;;;;;5075004;28;20466;-72
2023/03/15 04:43:45;;;;;;;7.03;3.10;;;4.20;99.90;;;;;;5076151;28;20985;-72
2023/03/15 04:46:14;;;;;;;5.70;4.23;;;4.20;99.90;;;;;;5073357;28;20476;-72
2023/03/15 04:48:41;;;;;;;5.57;3.63;;;4.10;99.90;;;;;;5073106;28;20986;-72
2023/03/15 04:51:09;;;;;;;4.67;2.10;;;4.20;99.90;;;;;;5073089;28;20826;-72
2023/03/15 04:53:37;;;;;;;4.57;3.27;;;4.20;99.90;;;;;;5074888;28;20422;-72
2023/03/15 04:56:05;;;;;;;5.30;2.90;;;4.20;99.90;;;;;;5091653;28;20473;-72
2023/03/15 04:58:32;;;;;;;4.57;2.93;;;4.30;99.90;;;;;;5065687;28;20777;-72
2023/03/15 05:01:00;;;;;;;2.60;1.57;;;4.30;99.90;;;;;;5067284;28;20533;-72
2023/03/15 05:03:28;;;;;;;2.23;1.97;;;4.30;99.90;;;;;;5070974;28;20454;-73
2023/03/15 05:05:55;;;;;;;2.97;2.37;;;4.40;99.90;;;;;;5090184;28;20433;-73
2023/03/15 05:08:22;;;;;;;20.13;4.10;;;4.30;99.90;;;;;;5087493;28;20470;-73
2023/03/15 05:10:50;;;;;;;6.03;4.13;;;4.20;99.90;;;;;;5048111;28;20496;-73
2023/03/15 05:13:19;;;;;;;2.90;2.60;;;4.10;99.90;;;;;;5066307;28;20486;-73
2023/03/15 05:15:46;;;;;;;9.40;3.30;;;4.00;99.90;;;;;;5067562;28;20437;-73
2023/03/15 05:18:13;;;;;;;5.20;2.20;;;3.90;99.90;;;;;;5070930;28;20462;-73
2023/03/15 05:20:41;;;;;;;2.90;1.70;;;3.90;99.90;;;;;;5072007;28;20579;-73
2023/03/15 05:23:08;;;;;;;4.87;3.37;;;3.90;99.90;;;;;;5065010;28;20525;-73
2023/03/15 05:25:36;;;;;;;2.50;1.60;;;3.90;99.90;;;;;;5067088;28;20909;-72
2023/03/15 05:28:04;;;;;;;2.13;1.77;;;4.00;99.90;;;;;;5073277;28;20859;-72
2023/03/15 05:30:32;;;;;;;5.83;2.57;;;3.90;99.90;;;;;;5072353;28;20429;-73
2023/03/15 05:33:03;;;;;;;4.30;2.80;;;3.90;99.90;;;;;;5068174;28;20542;-72
2023/03/15 05:35:32;;;;;;;2.73;1.67;;;4.00;99.90;;;;;;5065569;28;20828;-72
2023/03/15 05:38:00;;;;;;;1.97;1.70;;;3.90;99.90;;;;;;5072674;28;20781;-72
2023/03/15 05:40:29;;;;;;;5.17;2.33;;;4.00;99.90;;;;;;5078966;28;20534;-72
2023/03/15 05:42:56;;;;;;;5.00;2.43;;;4.00;99.90;;;;;;5077576;28;20474;-72
2023/03/15 05:45:23;;;;;;;8.37;3.27;;;4.10;99.90;;;;;;5073256;28;20899;-72
2023/03/15 05:47:50;;;;;;;2.50;2.07;;;4.10;99.90;;;;;;5076414;28;20539;-72
2023/03/15 05:50:17;;;;;;;2.70;2.40;;;4.20;99.90;;;;;;5079062;28;20486;-72
2023/03/15 05:52:44;;;;;;;1.57;1.40;;;4.00;99.90;;;;;;5070791;28;20460;-72
2023/03/15 05:55:12;;;;;;;3.77;2.77;;;4.00;99.90;;;;;;5074086;28;20512;-72
2023/03/15 05:57:40;;;;;;;2.73;2.20;;;4.10;99.90;;;;;;5073089;28;20473;-74
2023/03/15 06:00:09;;;;;;;8.23;3.30;;;4.10;99.90;;;;;;5060481;28;20418;-73
2023/03/15 06:02:36;;;;;;;2.97;1.90;;;4.00;99.90;;;;;;5074799;28;20490;-73
2023/03/15 06:05:03;;;;;;;4.53;3.13;;;4.10;99.90;;;;;;5073736;28;20486;-72
2023/03/15 06:07:30;;;;;;;3.40;2.03;;;4.10;99.90;;;;;;5084314;28;20511;-72
2023/03/15 06:09:57;;;;;;;2.30;1.33;;;4.10;99.90;;;;;;5082158;28;20515;-72
2023/03/15 06:12:25;;;;;;;2.97;2.17;;;4.20;99.90;;;;;;5087689;28;20456;-72
2023/03/15 06:14:52;;;;;;;3.83;2.50;;;4.20;99.90;;;;;;5078770;28;20439;-73
2023/03/15 06:17:19;;;;;;;7.20;4.10;;;4.20;99.90;;;;;;5073749;28;20447;-72
2023/03/15 06:19:46;;;;;;;2.80;2.43;;;4.10;99.90;;;;;;5064715;28;20455;-73
2023/03/15 06:22:13;;;;;;;4.83;2.63;;;4.00;99.90;;;;;;5057834;28;20451;-73
2023/03/15 06:24:40;;;;;;;4.73;3.20;;;4.10;99.90;;;;;;5057169;28;20514;-73
2023/03/15 06:27:08;;;;;;;15.83;4.57;;;4.10;99.90;;;;;;5060420;28;20498;-73
2023/03/15 06:29:36;;;;;;;6.20;3.73;;;4.20;99.90;;;;;;5037147;28;20491;-72
2023/03/15 06:32:04;;;;;;;4.80;3.60;;;4.20;99.90;;;;;;5061951;28;20445;-72
2023/03/15 06:34:31;;;;;;;4.13;3.40;;;4.30;99.90;;;;;;5075615;28;20462;-72
2023/03/15 06:36:58;;;;;;;5.53;2.27;;;4.30;99.90;;;;;;5060181;28;20480;-72
2023/03/15 06:39:25;;;;;;;3.97;3.30;;;4.30;99.90;;;;;;5087374;28;20448;-73
2023/03/15 06:41:56;;;;;;;5.90;3.40;;;4.30;99.90;;;;;;5078244;28;20433;-73
2023/03/15 06:44:23;;;;;;;3.97;3.50;;;4.30;99.90;;;;;;5065507;28;20450;-72
2023/03/15 06:46:51;;;;;;;6.33;2.90;;;4.30;99.90;;;;;;5066364;28;20522;-72
2023/03/15 06:49:18;;;;;;;5.60;3.93;;;4.30;99.90;;;;;;5076343;28;21002;-72
2023/03/15 06:51:45;;;;;;;7.43;3.10;;;4.30;99.90;;;;;;5077311;28;20504;-72
2023/03/15 06:54:12;;;;;;;7.67;3.70;;;4.30;99.90;;;;;;5074031;28;20528;-73
2023/03/15 06:56:39;;;;;;;5.00;3.67;;;4.50;99.90;;;;;;5075919;28;20769;-72
2023/03/15 06:59:06;;;;;;;4.43;3.03;;;4.50;99.90;;;;;;5080237;28;20554;-72
2023/03/15 07:01:33;;;;;;;2.57;2.30;;;4.60;99.90;;;;;;5083507;28;20520;-72
2023/03/15 07:04:02;;;;;;;5.17;3.70;;;4.60;99.90;;;;;;5078071;28;20421;-73
2023/03/15 07:06:29;;;;;;;5.37;4.13;;;4.70;99.90;;;;;;5077944;28;20516;-72
2023/03/15 07:08:56;;;;;;;6.10;3.13;;;4.70;99.90;;;;;;5073781;28;20846;-73
2023/03/15 07:11:23;;;;;;;3.40;3.10;;;4.90;99.90;;;;;;5072872;28;20940;-72
2023/03/15 07:13:50;;;;;;;2.20;1.97;;;4.90;99.90;;;;;;5071325;28;20566;-73
2023/03/15 07:16:17;;;;;;;6.47;3.07;;;4.80;99.90;;;;;;5076976;28;20484;-73
2023/03/15 07:18:44;;;;;;;7.63;4.97;;;4.70;99.90;;;;;;5075916;28;20486;-73
2023/03/15 07:21:13;;;;;;;6.27;3.40;;;4.90;99.90;;;;;;5074860;28;20425;-73
2023/03/15 07:23:40;;;;;;;3.10;2.40;;;4.90;99.90;;;;;;5071719;28;20483;-72
2023/03/15 07:26:07;;;;;;;4.90;4.37;;;4.80;99.90;;;;;;5075784;28;20964;-72
2023/03/15 07:28:34;;;;;;;5.13;3.30;;;4.90;99.90;;;;;;5069926;28;20486;-73
2023/03/15 07:31:03;;;;;;;5.97;3.43;;;5.00;99.90;;;;;;5073063;28;20557;-72
2023/03/15 07:33:31;;;;;;;5.60;3.27;;;4.90;99.90;;;;;;5076788;28;20417;-73
2023/03/15 07:35:59;;;;;;;7.70;4.23;;;5.10;99.90;;;;;;5081604;28;21076;-72
2023/03/15 07:38:28;;;;;;;3.60;2.73;;;5.20;99.90;;;;;;5076268;28;20525;-72
2023/03/15 07:40:56;;;;;;;7.57;4.57;;;5.20;99.90;;;;;;5066356;28;20925;-72
2023/03/15 07:43:23;;;;;;;3.23;2.93;;;5.30;99.90;;;;;;5074768;28;20490;-72
2023/03/15 07:45:51;;;;;;;4.40;2.70;;;5.40;99.90;;;;;;5072695;28;20417;-73
2023/03/15 07:48:17;;;;;;;4.67;3.03;;;5.60;99.90;;;;;;5075034;28;20479;-73
2023/03/15 07:50:45;;;;;;;4.57;3.33;;;5.80;99.90;;;;;;5074232;28;20471;-73
2023/03/15 07:53:13;;;;;;;8.37;4.10;;;5.80;99.90;;;;;;5074183;28;20410;-72
2023/03/15 07:55:41;;;;;;;7.30;3.50;;;5.80;99.90;;;;;;5071443;28;20530;-73
2023/03/15 07:58:08;;;;;;;5.00;2.50;;;5.90;99.90;;;;;;5070751;28;20465;-73
2023/03/15 08:00:35;;;;;;;4.40;2.60;;;6.10;99.90;;;;;;5074854;28;20446;-73
2023/03/15 08:03:04;;;;;;;4.20;2.60;;;5.90;99.90;;;;;;5065423;28;20931;-72
2023/03/15 08:05:31;;;;;;;9.23;6.93;;;6.00;99.90;;;;;;5073885;28;20501;-72
2023/03/15 08:07:58;;;;;;;5.27;2.90;;;6.10;99.90;;;;;;5074583;28;20496;-73
2023/03/15 08:10:25;;;;;;;8.33;2.10;;;6.20;99.90;;;;;;5074316;28;20457;-73
2023/03/15 08:12:54;;;;;;;6.00;3.53;;;6.30;99.90;;;;;;5074721;28;20428;-72
2023/03/15 08:15:21;;;;;;;13.23;3.90;;;6.70;99.90;;;;;;5074139;28;20508;-73
2023/03/15 08:17:49;;;;;;;5.23;3.27;;;7.40;99.90;;;;;;5074451;28;20529;-73
2023/03/15 08:20:21;;;;;;;4.40;3.00;;;7.60;99.90;;;;;;5074258;28;20497;-73
2023/03/15 08:22:50;;;;;;;7.27;4.23;;;7.50;99.90;;;;;;5076248;28;20428;-72
2023/03/15 08:25:19;;;;;;;10.00;4.30;;;7.20;99.90;;;;;;5088910;28;20470;-73
2023/03/15 08:27:47;;;;;;;6.33;4.23;;;7.00;99.90;;;;;;5079298;28;20510;-73
2023/03/15 08:30:17;;;;;;;5.00;2.97;;;6.90;99.90;;;;;;5067608;28;20618;-73
2023/03/15 08:32:47;;;;;;;5.33;4.63;;;7.20;99.90;;;;;;5073384;28;20433;-72
2023/03/15 08:35:16;;;;;;;4.30;3.00;;;7.20;99.90;;;;;;5078236;28;20456;-72
2023/03/15 08:37:45;;;;;;;11.07;3.33;;;7.50;99.90;;;;;;5077961;28;20487;-73
2023/03/15 08:40:14;;;;;;;8.43;2.70;;;8.50;99.90;;;;;;5075518;28;20761;-73
2023/03/15 08:42:41;;;;;;;2.60;2.10;;;8.90;99.90;;;;;;5062984;28;20874;-73
2023/03/15 08:45:09;;;;;;;8.00;2.50;;;9.10;99.90;;;;;;5073153;28;20525;-73
2023/03/15 08:47:38;;;;;;;3.70;3.30;;;8.90;99.90;;;;;;5074044;28;20437;-72
2023/03/15 08:50:10;;;;;;;3.97;3.30;;;8.90;99.90;;;;;;5071317;28;20468;-72
2023/03/15 08:52:37;;;;;;;5.83;3.53;;;8.20;99.90;;;;;;5085950;28;20430;-72
2023/03/15 08:55:05;;;;;;;4.67;3.10;;;8.90;99.90;;;;;;5070147;28;20442;-72
2023/03/15 08:57:32;;;;;;;3.60;2.67;;;9.90;99.90;;;;;;5073669;28;20586;-72
2023/03/15 09:00:06;;;;;;;4.40;2.43;;;10.40;99.90;;;;;;5074894;28;20443;-72
2023/03/15 09:02:33;;;;;;;5.40;4.60;;;11.30;99.90;;;;;;5072744;28;20487;-72
2023/03/15 09:05:01;;;;;;;6.50;3.87;;;12.10;99.90;;;;;;5070713;28;20485;-72
2023/03/15 09:07:28;;;;;;;7.67;3.30;;;12.40;99.90;;;;;;5072009;28;20534;-73
2023/03/15 09:09:55;;;;;;;2.77;2.20;;;11.30;99.90;;;;;;5069309;28;20497;-72
2023/03/15 09:12:22;;;;;;;6.30;3.03;;;10.00;99.90;;;;;;5066861;28;20955;-72
2023/03/15 09:14:49;;;;;;;7.00;3.93;;;9.30;99.90;;;;;;5068922;28;20425;-72
2023/03/15 09:17:16;;;;;;;5.20;3.47;;;9.70;99.90;;;;;;5070647;28;20490;-72
2023/03/15 09:19:43;;;;;;;3.07;2.77;;;10.50;99.90;;;;;;5072867;28;20474;-72
2023/03/15 09:22:12;;;;;;;4.70;3.00;;;12.30;99.90;;;;;;5059349;28;20530;-72
2023/03/15 09:24:39;;;;;;;6.83;4.40;;;12.70;99.90;;;;;;5060899;28;20517;-72
2023/03/15 09:27:06;;;;;;;3.33;2.70;;;11.80;99.90;;;;;;5055290;28;20554;-72
2023/03/15 09:29:34;;;;;;;5.80;5.10;;;10.90;99.90;;;;;;5066548;28;20974;-72
2023/03/15 09:32:01;;;;;;;12.10;4.10;;;9.70;99.90;;;;;;5066494;28;20478;-73
2023/03/15 09:34:28;;;;;;;6.07;3.33;;;9.20;99.90;;;;;;5053622;28;20457;-73
2023/03/15 09:36:55;;;;;;;3.87;3.40;;;10.10;99.90;;;;;;5072465;28;20544;-73
2023/03/15 09:39:24;;;;;;;5.13;3.57;;;11.80;99.90;;;;;;5072554;28;20944;-73
2023/03/15 09:41:55;;;;;;;8.50;3.63;;;13.20;99.90;;;;;;5070973;28;20480;-73
2023/03/15 09:44:44;;;;;;;3.33;2.37;;;14.50;99.90;;;;;;5075568;28;20481;-73
2023/03/15 09:47:23;;;;;;;3.77;2.80;;;15.60;99.90;;;;;;5063482;28;20924;-73
2023/03/15 09:50:00;;;;;;;3.37;2.70;;;15.30;99.90;;;;;;5061996;28;21059;-73
2023/03/15 09:52:33;;;;;;;3.43;3.03;;;15.10;99.90;;;;;;5057685;28;20531;-73
2023/03/15 09:55:10;;;;;;;4.73;3.47;;;15.30;99.90;;;;;;5056725;28;20816;-73
2023/03/15 09:57:45;;;;;;;6.23;3.07;;;15.10;99.90;;;;;;5072044;28;20470;-73
2023/03/15 10:00:19;;;;;;;6.13;2.23;;;14.40;99.90;;;;;;5073574;28;20442;-73
2023/03/15 10:02:55;;;;;;;4.40;3.23;;;12.70;99.90;;;;;;5073574;28;20489;-73
2023/03/15 10:05:32;;;;;;;5.20;3.57;;;12.10;99.90;;;;;;5087268;28;20470;-73
2023/03/15 10:07:59;;;;;;;5.70;2.80;;;13.20;99.90;;;;;;5061647;28;20521;-73
2023/03/15 10:10:34;;;;;;;3.83;2.33;;;14.40;99.90;;;;;;5059111;28;20470;-73
2023/03/15 10:13:13;;;;;;;5.13;3.30;;;14.90;99.90;;;;;;5070042;28;20457;-73
2023/03/15 10:15:52;;;;;;;3.80;3.20;;;16.50;99.80;;;;;;5072133;28;20897;-73
2023/03/15 10:18:30;;;;;;;7.73;2.67;;;16.90;98.00;;;;;;5057846;28;20981;-73
2023/03/15 10:21:04;;;;;;;9.33;2.70;;;17.60;96.50;;;;;;5055155;28;20966;-73
2023/03/15 10:23:40;;;;;;;2.27;2.07;;;17.50;94.00;;;;;;5063282;28;20411;-73
2023/03/15 10:26:14;;;;;;;4.93;2.60;;;17.20;94.00;;;;;;5059836;28;20475;-72
2023/03/15 10:28:42;;;;;;;5.13;2.00;;;15.90;92.80;;;;;;5074022;28;20442;-73
2023/03/15 10:31:14;;;;;;;11.23;2.00;;;16.10;95.50;;;;;;5070299;28;20502;-71
2023/03/15 10:33:42;;;;;;;3.77;2.30;;;16.80;94.10;;;;;;5073100;28;20458;-72
2023/03/15 10:36:15;;;;;;;5.40;2.17;;;17.30;92.40;;;;;;5082104;28;20493;-72
2023/03/15 10:38:43;;;;;;;10.40;2.33;;;16.90;90.90;;;;;;5064340;28;20446;-71
2023/03/15 10:41:14;;;;;;;9.23;2.60;;;15.30;91.20;;;;;;5085787;28;20439;-71
2023/03/15 10:43:41;;;;;;;4.93;2.00;;;13.90;92.20;;;;;;5063759;28;20471;-72
2023/03/15 10:46:11;;;;;;;4.60;1.97;;;13.10;93.60;;;;;;5065115;28;20470;-72
2023/03/15 10:48:40;;;;;;;2.70;1.50;;;13.30;93.60;;;;;;5062446;28;20552;-72
2023/03/15 10:51:15;;;;;;;9.17;2.43;;;14.10;93.20;;;;;;5057791;28;20485;-72
2023/03/15 10:53:52;;;;;;;11.37;1.77;;;15.60;92.80;;;;;;5057567;28;20462;-72
2023/03/15 10:56:24;;;;;;;4.30;2.43;;;15.60;91.50;;;;;;5069707;28;20848;-72
2023/03/15 10:58:53;;;;;;;3.70;1.50;;;16.30;92.10;;;;;;5061915;28;20501;-72
2023/03/15 11:01:26;;;;;;;3.90;1.50;;;17.10;85.90;;;;;;5077017;28;20447;-72
2023/03/15 11:04:13;;;;;;;3.17;1.67;;;17.40;77.90;;;;;;5057129;28;20765;-72
2023/03/15 11:06:43;;;;;;;9.00;3.30;;;16.10;80.00;;;;;;5064995;28;20472;-72
2023/03/15 11:09:13;;;;;;;2.53;1.37;;;14.90;83.00;;;;;;5076205;28;20538;-72
2023/03/15 11:11:59;;;;;;;3.97;2.30;;;14.50;89.50;;;;;;5067886;28;20508;-72
2023/03/15 11:14:32;;;;;;;3.70;2.37;;;15.10;87.30;;;;;;5061431;28;20504;-72
2023/03/15 11:17:00;;;;;;;2.80;1.50;;;14.70;86.00;;;;;;5075421;28;20787;-72
2023/03/15 11:19:30;;;;;;;3.00;1.23;;;14.00;84.90;;;;;;5075362;28;20446;-72
2023/03/15 11:21:59;;;;;;;1.77;1.27;;;13.90;86.40;;;;;;5075303;28;20442;-72
2023/03/15 11:24:28;;;;;;;2.10;1.40;;;15.20;84.00;;;;;;5074791;28;20491;-72
2023/03/15 11:27:00;;;;;;;2.73;1.50;;;16.30;84.80;;;;;;5073872;28;20554;-72
2023/03/15 11:29:30;;;;;;;4.80;1.77;;;17.70;79.60;;;;;;5074876;28;20485;-73
2023/03/15 11:31:59;;;;;;;2.90;1.60;;;19.40;71.90;;;;;;5065989;28;20451;-72
2023/03/15 11:34:37;;;;;;;1.73;1.20;;;19.00;69.50;;;;;;5079999;28;20546;-73
2023/03/15 11:37:11;;;;;;;3.80;1.73;;;18.70;66.10;;;;;;5055312;28;20550;-73
2023/03/15 11:39:47;;;;;;;17.57;2.73;;;18.50;66.40;;;;;;5083848;28;20466;-73
2023/03/15 11:42:22;;;;;;;6.30;1.60;;;18.50;67.80;;;;;;5078896;28;20534;-73
2023/03/15 11:44:53;;;;;;;2.43;1.63;;;18.30;65.10;;;;;;5057372;28;20466;-72
2023/03/15 11:47:30;;;;;;;2.03;1.27;;;19.50;66.80;;;;;;5070768;28;21003;-72
2023/03/15 11:49:58;;;;;;;1.93;1.60;;;19.10;61.40;;;;;;5067197;28;20561;-74
2023/03/15 11:52:27;;;;;;;3.90;1.50;;;19.90;61.30;;;;;;5074389;28;20453;-73
2023/03/15 11:54:59;;;;;;;3.13;2.00;;;19.60;58.70;;;;;;5075291;28;20542;-72
2023/03/15 11:57:46;;;;;;;1.60;1.23;;;20.20;56.60;;;;;;5075479;28;20506;-73
2023/03/15 12:00:52;;;;;;;6.00;1.97;;;19.70;56.20;;;;;;5059306;28;20492;-73
2023/03/15 12:03:43;;;;;;;3.70;1.57;;;19.10;54.30;;;;;;5064091;28;20770;-72
2023/03/15 12:06:34;;;;;;;2.23;1.60;;;18.90;55.40;;;;;;5055839;28;20486;-72
2023/03/15 12:09:01;;;;;;;2.40;1.67;;;19.10;56.80;;;;;;5068479;28;20461;-72
2023/03/15 12:11:40;;;;;;;3.37;2.17;;;19.30;53.30;;;;;;5074457;28;20486;-72
2023/03/15 12:14:27;;;;;;;2.63;1.47;;;19.10;56.40;;;;;;5072479;28;20853;-72
2023/03/15 12:17:12;;;;;;;2.37;1.70;;;19.40;53.00;;;;;;5053984;28;20463;-71
2023/03/15 12:19:40;;;;;;;2.80;1.30;;;19.00;53.30;;;;;;5064247;28;20478;-72
2023/03/15 12:22:17;;;;;;;2.77;1.30;;;19.90;52.20;;;;;;5075176;28;20442;-74
2023/03/15 12:24:46;;;;;;;3.33;1.40;;;21.00;51.00;;;;;;5074858;28;20510;-73
2023/03/15 12:27:16;;;;;;;1.90;1.47;;;21.40;49.40;;;;;;5074773;28;20989;-72
2023/03/15 12:29:58;;;;;;;2.50;1.17;;;19.20;48.50;;;;;;5074742;28;20465;-73
2023/03/15 12:32:25;;;;;;;2.70;1.93;;;19.20;52.50;;;;;;5069923;28;20522;-72
2023/03/15 12:34:57;;;;;;;3.13;2.20;;;19.90;50.80;;;;;;5073809;28;20876;-72
2023/03/15 12:37:27;;;;;;;1.50;0.97;;;19.80;49.10;;;;;;5067959;28;20521;-73
2023/03/15 12:40:01;;;;;;;7.70;1.50;;;20.00;49.20;;;;;;5068701;28;20883;-73
2023/03/15 12:43:10;;;;;;;2.33;1.80;;;21.30;50.00;;;;;;5058476;28;20474;-73
2023/03/15 12:45:46;;;;;;;2.87;2.13;;;22.20;48.00;;;;;;5080276;28;20438;-73
2023/03/15 12:48:29;;;;;;;2.50;1.57;;;21.00;47.80;;;;;;5090009;28;20426;-73
2023/03/15 12:51:02;;;;;;;3.87;1.40;;;20.50;48.90;;;;;;5083469;28;20478;-73
2023/03/15 12:53:49;;;;;;;1.40;1.00;;;20.00;49.80;;;;;;5045859;28;20479;-72
2023/03/15 12:56:42;;;;;;;2.57;1.50;;;18.60;48.60;;;;;;5083612;28;20481;-72
2023/03/15 12:59:27;;;;;;;2.80;1.37;;;16.30;48.50;;;;;;5066922;28;20845;-72
2023/03/15 13:01:56;;;;;;;2.07;1.37;;;15.70;48.00;;;;;;5073047;28;20431;-72
2023/03/15 13:04:23;;;;;;;6.60;1.60;;;16.40;50.30;;;;;;5070111;28;20450;-73
2023/03/15 13:07:07;;;;;;;3.53;1.43;;;17.40;47.70;;;;;;5068368;28;20515;-72